Portada
METAR-TAF:

METAR-TAF

Aeroports :

Doha, Qatar

latitud: 25-16-23N, longitud: 51-36-29E, altitud: 4 m

Observació

L'informe es va fer fa 34 minuts, a les 16:00 UTC
Vent 14 kt del Nord
Temperatura 35°C
Humitat 32%
Pressió 998 hPa
Visibilitat 10 km o més
sense núvols per sota de 1500 mi sense presència de cumulonimbus.

METAR: OTHH 171600Z AUTO 35014KT CAVOK 35/16 Q0998 NOSIG

Hora: 19:34 (16:34 UTC)

Pronòstic

L'informe es va fer fa 5 hores i 27 minuts, a les 11:07 UTC
Pronòstic vàlid del 17 a les 12 UTC al 18 a les 18 UTC
Vent 19 kt del Nord/Nord-Est
Visibilitat 10 km o més
sense núvols per sota de 1500 mi sense presència de cumulonimbus.
Temporalment
l' 17 a les 12 UTC al 17 a les 15 UTC
Vent 20 kt del Nord/Nord-Oest amb ràfegues de 30 kt
Visibilitat: 5000 m
torb alta de pols
Evolucionant progressivament
l' 17 a les 21 UTC al 17 a les 23 UTC
Vent 11 kt del Nord-Oest

TAF: OTHH 171107Z 1712/1818 02019KT CAVOK TEMPO 1712/1715 34020G30KT 5000 BLDU BECMG 1721/1723 31011KT

Observacions i pronòstics meteorològics de més de 4000 aeroports (METAR i TAF).

Les estacions disponibles són els punts grocs i vermells al mapa.

Posi el ratolí al punt desitjat per veure el nom de l'estació.

Feu clic per veure les observacions i els pronòstics meteorològics.

Per canviar el mapa: feu clic els botons verds amb una creu de color negre per apropar; al botó verd amb un guió per allunyar la imatge; o en les fletxes verdes per a mapes adjacents.


METAR-TAF: